Time,TemperatureF,DewpointF,PressureIn,WindDirection,WindDirectionDegrees,WindSpeedMPH,WindSpeedGustMPH,Humidity,HourlyPrecipIn,Conditions,Clouds,dailyrainin,SoftwareType,DateUTC
2013-07-22 00:01:00,71.4,66.3,29.83,ENE,68,4.0,5.8,84,0.00,CLR,BKN,0.00,WeatherDisplay:10.37,2013-07-22 05:01:00,
2013-07-22 00:06:00,71.2,66.2,29.83,NE,45,4.5,5.8,84,0.00,CLR,BKN,0.00,WeatherDisplay:10.37,2013-07-22 05:06:00,
2013-07-22 00:11:00,71.2,66.2,29.83,ENE,68,6.0,6.0,84,0.00,CLR,BKN,0.00,WeatherDisplay:10.37,2013-07-22 05:11:00,
2013-07-22 00:16:00,71.2,66.2,29.83,NE,45,1.6,4.6,84,0.00,CLR,BKN,0.00,WeatherDisplay:10.37,2013-07-22 05:16:00,
2013-07-22 00:21:00,71.2,66.2,29.83,East,90,2.6,3.5,84,0.00,CLR,BKN,0.00,WeatherDisplay:10.37,2013-07-22 05:21:00,
2013-07-22 00:26:00,71.2,66.2,29.82,East,90,1.1,2.3,84,0.00,CLR,BKN,0.00,WeatherDisplay:10.37,2013-07-22 05:26:00,
2013-07-22 00:31:00,71.1,66.0,29.82,ENE,68,0.9,1.1,84,0.00,CLR,BKN,0.00,WeatherDisplay:10.37,2013-07-22 05:31:00,
2013-07-22 00:36:00,71.1,66.0,29.81,ENE,68,1.4,2.3,84,0.00,CLR,BKN,0.00,WeatherDisplay:10.37,2013-07-22 05:36:00,
2013-07-22 00:41:00,70.9,65.8,29.81,NE,45,1.1,2.3,84,0.00,CLR,BKN,0.00,WeatherDisplay:10.37,2013-07-22 05:41:00,
2013-07-22 00:46:00,70.9,65.8,29.81,ENE,68,1.1,2.3,84,0.00,CLR,BKN,0.00,WeatherDisplay:10.37,2013-07-22 05:46:00,
2013-07-22 00:51:00,70.9,65.8,29.81,NE,45,2.0,3.5,84,0.00,CLR,BKN,0.00,WeatherDisplay:10.37,2013-07-22 05:51:00,
2013-07-22 00:56:00,70.7,65.6,29.81,ENE,68,2.4,3.5,84,0.00,CLR,BKN,0.00,WeatherDisplay:10.37,2013-07-22 05:56:00,
2013-07-22 01:01:00,70.7,65.6,29.81,NE,45,0.7,1.1,84,0.00,CLR,BKN,0.00,WeatherDisplay:10.37,2013-07-22 06:01:00,
2013-07-22 01:06:00,70.7,65.6,29.81,NE,45,0.0,1.1,84,0.00,CLR,BKN,0.00,WeatherDisplay:10.37,2013-07-22 06:06:00,
2013-07-22 01:11:00,70.9,65.8,29.81,NE,45,0.0,0.0,84,0.00,CLR,BKN,0.00,WeatherDisplay:10.37,2013-07-22 06:11:00,
2013-07-22 01:16:00,70.7,65.6,29.81,East,90,2.0,2.3,84,0.00,CLR,BKN,0.00,WeatherDisplay:10.37,2013-07-22 06:16:00,
2013-07-22 01:21:00,70.5,65.4,29.80,ENE,68,2.0,2.3,84,0.00,CLR,BKN,0.00,WeatherDisplay:10.37,2013-07-22 06:21:00,
2013-07-22 01:26:00,70.2,65.1,29.80,ESE,112,0.9,1.1,84,0.00,CLR,BKN,0.00,WeatherDisplay:10.37,2013-07-22 06:26:00,
2013-07-22 01:31:00,70.2,65.1,29.80,East,90,0.0,0.0,84,0.00,CLR,BKN,0.00,WeatherDisplay:10.37,2013-07-22 06:31:00,
2013-07-22 01:36:00,70.2,65.4,29.80,NE,45,0.0,0.0,85,0.00,CLR,BKN,0.00,WeatherDisplay:10.37,2013-07-22 06:36:00,
2013-07-22 01:41:00,70.2,65.1,29.80,NE,45,0.0,0.0,84,0.00,CLR,BKN,0.00,WeatherDisplay:10.37,2013-07-22 06:41:00,
2013-07-22 01:46:00,70.2,65.4,29.80,NE,45,0.0,0.0,85,0.00,CLR,BKN,0.00,WeatherDisplay:10.37,2013-07-22 06:46:00,
2013-07-22 01:51:00,70.2,65.4,29.80,NNE,22,0.0,0.0,85,0.00,CLR,BKN,0.00,WeatherDisplay:10.37,2013-07-22 06:51:00,
2013-07-22 01:56:00,70.2,65.4,29.80,NE,45,0.7,1.1,85,0.00,CLR,BKN,0.00,WeatherDisplay:10.37,2013-07-22 06:56:00,
2013-07-22 02:01:00,70.2,65.4,29.80,NNE,22,0.0,1.1,85,0.00,CLR,BKN,0.00,WeatherDisplay:10.37,2013-07-22 07:01:00,
2013-07-22 02:06:00,70.2,65.4,29.80,NNE,22,0.5,0.5,85,0.00,CLR,BKN,0.00,WeatherDisplay:10.37,2013-07-22 07:06:00,
2013-07-22 02:11:00,70.2,65.4,29.80,NNW,338,0.0,0.0,85,0.00,CLR,BKN,0.00,WeatherDisplay:10.37,2013-07-22 07:11:00,
2013-07-22 02:16:00,70.2,65.4,29.80,NNW,338,0.0,0.0,85,0.00,CLR,BKN,0.00,WeatherDisplay:10.37,2013-07-22 07:16:00,
2013-07-22 02:21:00,70.2,65.4,29.80,NW,315,0.0,0.0,85,0.00,CLR,BKN,0.00,WeatherDisplay:10.37,2013-07-22 07:21:00,
2013-07-22 02:26:00,69.8,65.1,29.80,WNW,292,0.0,0.0,85,0.00,CLR,BKN,0.00,WeatherDisplay:10.37,2013-07-22 07:26:00,
2013-07-22 02:31:00,69.8,65.1,29.80,NNE,22,0.0,0.0,85,0.00,CLR,BKN,0.00,WeatherDisplay:10.37,2013-07-22 07:31:00,
2013-07-22 02:36:00,69.6,64.9,29.80,ENE,68,0.0,0.0,85,0.00,CLR,BKN,0.00,WeatherDisplay:10.37,2013-07-22 07:36:00,
2013-07-22 02:41:00,69.4,64.7,29.80,East,90,0.0,0.0,85,0.00,CLR,BKN,0.00,WeatherDisplay:10.37,2013-07-22 07:41:00,
2013-07-22 02:46:00,69.4,65.1,29.80,ESE,112,0.0,0.0,86,0.00,CLR,BKN,0.00,WeatherDisplay:10.37,2013-07-22 07:46:00,
2013-07-22 02:51:00,69.4,65.1,29.79,SE,135,0.0,0.0,86,0.00,CLR,BKN,0.00,WeatherDisplay:10.37,2013-07-22 07:51:00,
2013-07-22 02:56:00,69.4,65.1,29.79,SE,135,0.0,0.0,86,0.00,CLR,BKN,0.00,WeatherDisplay:10.37,2013-07-22 07:56:00,
2013-07-22 03:01:00,69.4,65.1,29.79,ENE,68,0.0,0.0,86,0.00,CLR,BKN,0.00,WeatherDisplay:10.37,2013-07-22 08:01:00,
2013-07-22 03:06:00,69.6,65.6,29.78,NE,45,0.0,0.0,87,0.00,CLR,BKN,0.00,WeatherDisplay:10.37,2013-07-22 08:06:00,
2013-07-22 03:11:00,69.6,65.6,29.78,East,90,0.0,1.1,87,0.00,CLR,BKN,0.00,WeatherDisplay:10.37,2013-07-22 08:11:00,
2013-07-22 03:16:00,69.4,65.4,29.78,East,90,0.0,0.0,87,0.00,CLR,BKN,0.00,WeatherDisplay:10.37,2013-07-22 08:16:00,
2013-07-22 03:21:00,69.3,65.2,29.78,East,90,0.0,0.0,87,0.00,CLR,BKN,0.00,WeatherDisplay:10.37,2013-07-22 08:21:00,
2013-07-22 03:26:00,69.1,65.0,29.78,ENE,68,0.0,0.0,87,0.00,CLR,BKN,0.00,WeatherDisplay:10.37,2013-07-22 08:26:00,
2013-07-22 03:31:00,69.1,65.0,29.78,NNE,22,0.0,0.0,87,0.00,CLR,BKN,0.00,WeatherDisplay:10.37,2013-07-22 08:31:00,
2013-07-22 03:36:00,69.1,65.0,29.78,North,0,0.0,0.0,87,0.00,CLR,BKN,0.00,WeatherDisplay:10.37,2013-07-22 08:36:00,
2013-07-22 03:41:00,69.1,65.0,29.78,NNE,22,0.0,0.0,87,0.00,CLR,BKN,0.00,WeatherDisplay:10.37,2013-07-22 08:41:00,
2013-07-22 03:46:00,69.1,65.0,29.77,NNE,22,1.1,1.1,87,0.00,CLR,BKN,0.00,WeatherDisplay:10.37,2013-07-22 08:46:00,
2013-07-22 03:51:00,68.9,64.9,29.77,North,0,0.0,0.0,87,0.00,CLR,BKN,0.00,WeatherDisplay:10.37,2013-07-22 08:51:00,
2013-07-22 03:56:00,68.9,64.9,29.78,NNW,338,0.0,0.0,87,0.00,CLR,BKN,0.00,WeatherDisplay:10.37,2013-07-22 08:56:00,
2013-07-22 04:01:00,68.9,64.9,29.78,NNW,338,0.0,0.0,87,0.00,CLR,BKN,0.00,WeatherDisplay:10.37,2013-07-22 09:01:00,
2013-07-22 04:06:00,68.9,64.9,29.77,NNE,22,0.0,0.0,87,0.00,CLR,BKN,0.00,WeatherDisplay:10.37,2013-07-22 09:06:00,
2013-07-22 04:11:00,69.1,65.0,29.77,NE,45,0.0,0.0,87,0.00,CLR,BKN,0.00,WeatherDisplay:10.37,2013-07-22 09:11:00,
2013-07-22 04:16:00,68.9,64.9,29.77,NE,45,0.0,0.0,87,0.00,CLR,BKN,0.00,WeatherDisplay:10.37,2013-07-22 09:16:00,
2013-07-22 04:21:00,68.9,64.9,29.77,NE,45,0.7,1.1,87,0.00,CLR,BKN,0.00,WeatherDisplay:10.37,2013-07-22 09:21:00,
2013-07-22 04:26:00,68.7,64.7,29.77,NE,45,1.4,1.4,87,0.00,CLR,BKN,0.00,WeatherDisplay:10.37,2013-07-22 09:26:00,
2013-07-22 04:31:00,68.7,64.7,29.76,ENE,68,1.8,1.8,87,0.00,CLR,BKN,0.00,WeatherDisplay:10.37,2013-07-22 09:31:00,
2013-07-22 04:36:00,68.4,64.3,29.77,ENE,68,0.9,1.1,87,0.00,CLR,BKN,0.00,WeatherDisplay:10.37,2013-07-22 09:36:00,
2013-07-22 04:41:00,68.2,64.5,29.77,NE,45,0.0,0.0,88,0.00,CLR,BKN,0.00,WeatherDisplay:10.37,2013-07-22 09:41:00,
2013-07-22 04:46:00,68.0,64.3,29.77,NE,45,0.2,0.2,88,0.00,CLR,BKN,0.00,WeatherDisplay:10.37,2013-07-22 09:46:00,
2013-07-22 04:51:00,68.0,64.3,29.77,NE,45,0.0,0.0,88,0.00,CLR,BKN,0.00,WeatherDisplay:10.37,2013-07-22 09:51:00,
2013-07-22 04:56:00,68.0,64.3,29.77,NE,45,0.0,0.0,88,0.00,CLR,BKN,0.00,WeatherDisplay:10.37,2013-07-22 09:56:00,
2013-07-22 05:01:00,67.6,64.0,29.78,NNW,338,0.2,0.2,88,0.00,CLR,BKN,0.00,WeatherDisplay:10.37,2013-07-22 10:01:00,
2013-07-22 05:06:00,67.6,64.0,29.78,NNW,338,0.0,0.0,88,0.00,CLR,BKN,0.00,WeatherDisplay:10.37,2013-07-22 10:06:00,
2013-07-22 05:11:00,67.5,63.8,29.78,NNW,338,0.0,0.0,88,0.00,CLR,BKN,0.00,WeatherDisplay:10.37,2013-07-22 10:11:00,
2013-07-22 05:16:00,67.3,63.6,29.79,NNW,338,0.0,0.0,88,0.00,CLR,BKN,0.00,WeatherDisplay:10.37,2013-07-22 10:16:00,
2013-07-22 05:21:00,67.1,63.4,29.79,NNW,338,0.7,1.1,88,0.00,CLR,BKN,0.00,WeatherDisplay:10.37,2013-07-22 10:21:00,
2013-07-22 05:26:00,67.1,63.4,29.79,NNW,338,1.6,2.3,88,0.00,CLR,BKN,0.00,WeatherDisplay:10.37,2013-07-22 10:26:00,
2013-07-22 05:31:00,67.1,63.4,29.79,NNW,338,2.2,2.3,88,0.00,CLR,BKN,0.00,WeatherDisplay:10.37,2013-07-22 10:31:00,
2013-07-22 05:36:00,67.1,63.4,29.79,NNW,338,0.0,1.1,88,0.00,CLR,BKN,0.00,WeatherDisplay:10.37,2013-07-22 10:36:00,
2013-07-22 05:41:00,67.1,63.4,29.79,NW,315,0.0,0.0,88,0.00,CLR,BKN,0.00,WeatherDisplay:10.37,2013-07-22 10:41:00,
2013-07-22 05:46:00,67.1,63.4,29.79,NW,315,1.4,2.3,88,0.00,CLR,BKN,0.00,WeatherDisplay:10.37,2013-07-22 10:46:00,
2013-07-22 05:51:00,66.7,63.1,29.79,NW,315,2.6,2.6,88,0.00,CLR,BKN,0.00,WeatherDisplay:10.37,2013-07-22 10:51:00,
2013-07-22 05:56:00,66.7,63.1,29.79,NNW,338,0.9,1.1,88,0.00,CLR,BKN,0.00,WeatherDisplay:10.37,2013-07-22 10:56:00,
2013-07-22 06:01:00,66.7,63.1,29.79,NNW,338,0.0,0.0,88,0.00,CLR,BKN,0.00,WeatherDisplay:10.37,2013-07-22 11:01:00,
2013-07-22 06:06:00,66.7,63.4,29.79,NNW,338,0.0,0.0,89,0.00,CLR,BKN,0.00,WeatherDisplay:10.37,2013-07-22 11:06:00,
2013-07-22 06:11:00,66.9,63.6,29.79,NNW,338,0.7,1.1,89,0.00,CLR,BKN,0.00,WeatherDisplay:10.37,2013-07-22 11:11:00,
2013-07-22 06:16:00,67.1,63.7,29.79,NNW,338,0.5,1.1,89,0.00,CLR,BKN,0.00,WeatherDisplay:10.37,2013-07-22 11:16:00,
2013-07-22 06:21:00,67.6,64.3,29.79,NNW,338,0.0,0.0,89,0.00,CLR,BKN,0.00,WeatherDisplay:10.37,2013-07-22 11:21:00,
2013-07-22 06:26:00,68.5,65.2,29.79,North,0,0.0,0.0,89,0.00,CLR,BKN,0.00,WeatherDisplay:10.37,2013-07-22 11:26:00,
2013-07-22 06:31:00,69.4,65.7,29.79,ENE,68,0.0,0.0,88,0.00,CLR,BKN,0.00,WeatherDisplay:10.37,2013-07-22 11:31:00,
2013-07-22 06:36:00,70.2,66.4,29.79,NE,45,0.7,1.1,88,0.00,CLR,BKN,0.00,WeatherDisplay:10.37,2013-07-22 11:36:00,
2013-07-22 06:41:00,71.1,67.0,29.79,ENE,68,0.0,0.0,87,0.00,CLR,BKN,0.00,WeatherDisplay:10.37,2013-07-22 11:41:00,
2013-07-22 06:46:00,72.0,67.5,29.79,ENE,68,0.0,0.0,86,0.00,CLR,BKN,0.00,WeatherDisplay:10.37,2013-07-22 11:46:00,
2013-07-22 06:51:00,72.9,68.1,29.78,ENE,68,0.5,0.0,85,0.00,CLR,BKN,0.00,WeatherDisplay:10.37,2013-07-22 11:51:00,
2013-07-22 06:56:00,73.8,69.0,29.79,NE,45,0.0,0.0,85,0.00,CLR,BKN,0.00,WeatherDisplay:10.37,2013-07-22 11:56:00,
2013-07-22 07:01:00,74.8,69.3,29.79,NE,45,0.5,0.0,83,0.00,CLR,BKN,0.00,WeatherDisplay:10.37,2013-07-22 12:01:00,
2013-07-22 07:06:00,75.9,70.0,29.78,NE,45,0.2,1.1,82,0.00,CLR,BKN,0.00,WeatherDisplay:10.37,2013-07-22 12:06:00,
2013-07-22 07:11:00,76.6,70.4,29.78,ENE,68,0.0,0.0,81,0.00,CLR,BKN,0.00,WeatherDisplay:10.37,2013-07-22 12:11:00,
2013-07-22 07:16:00,77.0,70.0,29.79,ENE,68,0.5,0.0,79,0.00,CLR,BKN,0.00,WeatherDisplay:10.37,2013-07-22 12:16:00,
2013-07-22 07:21:00,76.3,68.9,29.78,East,90,1.1,1.1,78,0.00,CLR,BKN,0.00,WeatherDisplay:10.37,2013-07-22 12:21:00,
2013-07-22 07:26:00,75.4,68.4,29.79,East,90,2.4,3.5,79,0.00,CLR,BKN,0.00,WeatherDisplay:10.37,2013-07-22 12:26:00,
2013-07-22 07:31:00,75.2,69.0,29.79,ESE,112,0.5,1.1,81,0.00,CLR,BKN,0.00,WeatherDisplay:10.37,2013-07-22 12:31:00,
2013-07-22 07:36:00,75.6,69.3,29.79,ESE,112,2.6,2.6,81,0.00,CLR,BKN,0.00,WeatherDisplay:10.37,2013-07-22 12:36:00,
2013-07-22 07:41:00,75.2,69.0,29.79,ESE,112,2.4,2.4,81,0.00,CLR,BKN,0.00,WeatherDisplay:10.37,2013-07-22 12:41:00,
2013-07-22 07:46:00,74.5,68.3,29.79,ENE,68,1.4,1.4,81,0.00,CLR,BKN,0.00,WeatherDisplay:10.37,2013-07-22 12:46:00,
2013-07-22 07:51:00,74.5,68.6,29.79,ESE,112,2.0,2.3,82,0.00,CLR,BKN,0.00,WeatherDisplay:10.37,2013-07-22 12:51:00,
2013-07-22 07:56:00,74.7,68.8,29.79,ENE,68,2.4,2.4,82,0.00,CLR,BKN,0.00,WeatherDisplay:10.37,2013-07-22 12:56:00,
2013-07-22 08:01:00,74.7,69.2,29.79,East,90,2.4,3.5,83,0.00,CLR,BKN,0.00,WeatherDisplay:10.37,2013-07-22 13:01:00,
2013-07-22 08:06:00,74.3,68.8,29.79,East,90,3.1,3.5,83,0.00,CLR,BKN,0.00,WeatherDisplay:10.37,2013-07-22 13:06:00,
2013-07-22 08:11:00,74.5,69.3,29.79,ENE,68,2.9,2.9,84,0.00,CLR,BKN,0.00,WeatherDisplay:10.37,2013-07-22 13:11:00,
2013-07-22 08:16:00,75.9,70.7,29.79,SE,135,2.4,2.4,84,0.00,CLR,BKN,0.00,WeatherDisplay:10.37,2013-07-22 13:16:00,
2013-07-22 08:21:00,77.0,71.1,29.79,ENE,68,2.6,2.6,82,0.00,CLR,BKN,0.00,WeatherDisplay:10.37,2013-07-22 13:21:00,
2013-07-22 08:26:00,78.1,71.8,29.79,ESE,112,2.4,3.5,81,0.00,CLR,BKN,0.00,WeatherDisplay:10.37,2013-07-22 13:26:00,
2013-07-22 08:31:00,78.6,72.3,29.79,SE,135,3.3,3.5,81,0.00,CLR,BKN,0.00,WeatherDisplay:10.37,2013-07-22 13:31:00,
2013-07-22 08:36:00,79.0,72.3,29.79,SE,135,2.0,2.0,80,0.00,CLR,BKN,0.00,WeatherDisplay:10.37,2013-07-22 13:36:00,
2013-07-22 08:41:00,80.2,73.5,29.79,ESE,112,2.4,2.4,80,0.00,CLR,BKN,0.00,WeatherDisplay:10.37,2013-07-22 13:41:00,
2013-07-22 08:46:00,81.5,74.4,29.79,ESE,112,1.6,2.3,79,0.00,CLR,BKN,0.00,WeatherDisplay:10.37,2013-07-22 13:46:00,
2013-07-22 08:51:00,82.9,75.0,29.79,ESE,112,1.1,2.3,77,0.00,CLR,BKN,0.00,WeatherDisplay:10.37,2013-07-22 13:51:00,
2013-07-22 08:56:00,84.2,75.4,29.79,SSE,158,1.4,2.3,75,0.00,CLR,BKN,0.00,WeatherDisplay:10.37,2013-07-22 13:56:00,
2013-07-22 09:01:00,84.9,76.1,29.79,SE,135,0.0,0.0,75,0.00,CLR,BKN,0.00,WeatherDisplay:10.37,2013-07-22 14:01:00,
2013-07-22 09:06:00,86.0,76.3,29.79,SSE,158,0.0,0.0,73,0.00,CLR,BKN,0.00,WeatherDisplay:10.37,2013-07-22 14:06:00,
2013-07-22 09:11:00,87.3,76.3,29.79,SW,225,1.8,4.6,70,0.00,CLR,BKN,0.00,WeatherDisplay:10.37,2013-07-22 14:11:00,
2013-07-22 09:16:00,86.5,74.7,29.79,WSW,248,2.9,2.9,68,0.00,CLR,BKN,0.00,WeatherDisplay:10.37,2013-07-22 14:16:00,
2013-07-22 09:21:00,85.6,74.3,29.79,West,270,0.5,2.3,69,0.00,CLR,BKN,0.00,WeatherDisplay:10.37,2013-07-22 14:21:00,
2013-07-22 09:26:00,85.8,75.3,29.79,WSW,248,2.0,2.3,71,0.00,CLR,BKN,0.00,WeatherDisplay:10.37,2013-07-22 14:26:00,
2013-07-22 09:31:00,87.4,76.9,29.80,NNW,338,2.4,3.5,71,0.00,CLR,BKN,0.00,WeatherDisplay:10.37,2013-07-22 14:31:00,
2013-07-22 09:36:00,88.7,76.8,29.79,NW,315,1.6,3.5,68,0.00,CLR,BKN,0.00,WeatherDisplay:10.37,2013-07-22 14:36:00,
2013-07-22 09:41:00,87.6,75.3,29.80,WNW,292,2.6,2.6,67,0.00,CLR,BKN,0.00,WeatherDisplay:10.37,2013-07-22 14:41:00,
2013-07-22 09:46:00,85.8,73.6,29.80,SW,225,2.2,3.5,67,0.00,CLR,BKN,0.00,WeatherDisplay:10.37,2013-07-22 14:46:00,
2013-07-22 09:51:00,85.3,74.0,29.79,NNW,338,2.4,4.6,69,0.00,CLR,BKN,0.00,WeatherDisplay:10.37,2013-07-22 14:51:00,
2013-07-22 09:56:00,86.5,74.7,29.79,WSW,248,4.3,4.6,68,0.00,CLR,BKN,0.00,WeatherDisplay:10.37,2013-07-22 14:56:00,
2013-07-22 10:01:00,87.1,74.8,29.79,WSW,248,2.9,3.5,67,0.00,CLR,BKN,0.00,WeatherDisplay:10.37,2013-07-22 15:01:00,
2013-07-22 10:06:00,88.5,76.2,29.79,SW,225,1.4,2.3,67,0.00,CLR,BKN,0.00,WeatherDisplay:10.37,2013-07-22 15:06:00,
2013-07-22 10:11:00,90.0,76.1,29.79,SSW,202,2.4,2.4,64,0.00,CLR,BKN,0.00,WeatherDisplay:10.37,2013-07-22 15:11:00,
2013-07-22 10:16:00,90.9,76.5,29.78,WNW,292,4.0,4.6,63,0.00,CLR,BKN,0.00,WeatherDisplay:10.37,2013-07-22 15:16:00,
2013-07-22 10:21:00,91.6,76.7,29.78,SW,225,2.9,3.5,62,0.00,CLR,BKN,0.00,WeatherDisplay:10.37,2013-07-22 15:21:00,
2013-07-22 10:26:00,91.2,76.4,29.79,WNW,292,3.1,3.1,62,0.00,CLR,BKN,0.00,WeatherDisplay:10.37,2013-07-22 15:26:00,
2013-07-22 10:31:00,91.4,76.1,29.79,SSW,202,1.8,2.3,61,0.00,CLR,BKN,0.00,WeatherDisplay:10.37,2013-07-22 15:31:00,
2013-07-22 10:36:00,91.8,75.9,29.78,SW,225,1.1,3.5,60,0.00,CLR,BKN,0.00,WeatherDisplay:10.37,2013-07-22 15:36:00,
2013-07-22 10:41:00,92.3,74.9,29.78,WNW,292,0.5,0.5,57,0.00,CLR,BKN,0.00,WeatherDisplay:10.37,2013-07-22 15:41:00,
2013-07-22 10:46:00,94.1,76.0,29.78,NNW,338,1.8,1.8,56,0.00,CLR,BKN,0.00,WeatherDisplay:10.37,2013-07-22 15:46:00,
2013-07-22 10:51:00,95.2,76.5,29.78,WNW,292,2.2,4.6,55,0.00,CLR,BKN,0.00,WeatherDisplay:10.37,2013-07-22 15:51:00,
2013-07-22 10:56:00,94.5,75.8,29.78,North,0,0.5,2.3,55,0.00,CLR,BKN,0.00,WeatherDisplay:10.37,2013-07-22 15:56:00,
2013-07-22 11:01:00,95.0,76.3,29.78,SW,225,3.1,3.1,55,0.00,CLR,BKN,0.00,WeatherDisplay:10.37,2013-07-22 16:01:00,
2013-07-22 11:06:00,94.8,74.4,29.78,ESE,112,0.7,1.1,52,0.00,CLR,BKN,0.00,WeatherDisplay:10.37,2013-07-22 16:06:00,
2013-07-22 11:11:00,94.8,75.0,29.78,WSW,248,2.2,3.5,53,0.00,CLR,BKN,0.00,WeatherDisplay:10.37,2013-07-22 16:11:00,
2013-07-22 11:16:00,95.2,74.8,29.79,WSW,248,4.5,4.5,52,0.00,CLR,BKN,0.00,WeatherDisplay:10.37,2013-07-22 16:16:00,
2013-07-22 11:21:00,95.7,74.7,29.78,SSW,202,4.0,4.0,51,0.00,CLR,BKN,0.00,WeatherDisplay:10.37,2013-07-22 16:21:00,
2013-07-22 11:26:00,95.5,74.5,29.79,South,180,2.0,2.3,51,0.00,CLR,BKN,0.00,WeatherDisplay:10.37,2013-07-22 16:26:00,
2013-07-22 11:31:00,95.0,74.0,29.78,West,270,0.2,2.3,51,0.00,CLR,BKN,0.00,WeatherDisplay:10.37,2013-07-22 16:31:00,
2013-07-22 11:36:00,94.8,73.9,29.79,WSW,248,2.6,3.5,51,0.00,CLR,BKN,0.00,WeatherDisplay:10.37,2013-07-22 16:36:00,
2013-07-22 11:41:00,95.0,73.4,29.79,WSW,248,4.7,5.8,50,0.00,CLR,BKN,0.00,WeatherDisplay:10.37,2013-07-22 16:41:00,
2013-07-22 11:46:00,95.4,72.6,29.79,South,180,0.9,2.3,48,0.00,CLR,BKN,0.00,WeatherDisplay:10.37,2013-07-22 16:46:00,
2013-07-22 11:51:00,95.7,74.7,29.79,SW,225,2.4,3.5,51,0.00,CLR,BKN,0.00,WeatherDisplay:10.37,2013-07-22 16:51:00,
2013-07-22 11:56:00,95.9,74.9,29.79,West,270,3.3,3.5,51,0.00,CLR,BKN,0.00,WeatherDisplay:10.37,2013-07-22 16:56:00,
2013-07-22 12:01:00,95.0,74.0,29.79,WSW,248,5.4,6.9,51,0.00,CLR,BKN,0.00,WeatherDisplay:10.37,2013-07-22 17:01:00,
2013-07-22 12:06:00,95.4,74.4,29.79,SSW,202,4.7,8.1,51,0.00,CLR,BKN,0.00,WeatherDisplay:10.37,2013-07-22 17:06:00,
2013-07-22 12:11:00,95.7,74.7,29.79,WSW,248,5.4,5.4,51,0.00,CLR,BKN,0.00,WeatherDisplay:10.37,2013-07-22 17:11:00,
2013-07-22 12:16:00,95.7,74.1,29.79,NW,315,4.7,5.8,50,0.00,CLR,BKN,0.00,WeatherDisplay:10.37,2013-07-22 17:16:00,
2013-07-22 12:21:00,94.5,72.9,29.79,WSW,248,4.7,4.7,50,0.00,CLR,BKN,0.00,WeatherDisplay:10.37,2013-07-22 17:21:00,
2013-07-22 12:26:00,94.6,73.7,29.79,NNW,338,3.3,3.3,51,0.00,CLR,BKN,0.00,WeatherDisplay:10.37,2013-07-22 17:26:00,
2013-07-22 12:31:00,94.6,73.7,29.78,West,270,8.5,8.5,51,0.00,CLR,BKN,0.00,WeatherDisplay:10.37,2013-07-22 17:31:00,
2013-07-22 12:36:00,94.3,74.0,29.78,WNW,292,4.5,5.8,52,0.00,CLR,BKN,0.00,WeatherDisplay:10.37,2013-07-22 17:36:00,
2013-07-22 12:41:00,94.1,72.6,29.78,WSW,248,6.0,6.0,50,0.00,CLR,BKN,0.00,WeatherDisplay:10.37,2013-07-22 17:41:00,
2013-07-22 12:46:00,93.6,72.7,29.78,NNW,338,2.6,5.8,51,0.00,CLR,BKN,0.00,WeatherDisplay:10.37,2013-07-22 17:46:00,
2013-07-22 12:51:00,93.2,73.0,29.78,West,270,6.2,6.9,52,0.00,CLR,BKN,0.00,WeatherDisplay:10.37,2013-07-22 17:51:00,
2013-07-22 12:56:00,92.8,73.2,29.77,SW,225,3.3,4.6,53,0.00,CLR,BKN,0.00,WeatherDisplay:10.37,2013-07-22 17:56:00,
2013-07-22 13:01:00,92.8,73.2,29.77,NNW,338,4.0,4.6,53,0.00,CLR,BKN,0.00,WeatherDisplay:10.37,2013-07-22 18:01:00,
2013-07-22 13:06:00,92.7,73.0,29.77,WNW,292,4.3,6.7,53,0.00,CLR,BKN,0.00,WeatherDisplay:10.37,2013-07-22 18:06:00,
2013-07-22 13:11:00,92.3,72.7,29.77,WSW,248,6.0,6.0,53,0.00,CLR,BKN,0.00,WeatherDisplay:10.37,2013-07-22 18:11:00,
2013-07-22 13:16:00,92.1,72.5,29.76,SSW,202,0.9,3.5,53,0.00,CLR,BKN,0.00,WeatherDisplay:10.37,2013-07-22 18:16:00,
2013-07-22 13:21:00,91.8,72.2,29.76,SSE,158,0.7,2.3,53,0.00,CLR,BKN,0.00,WeatherDisplay:10.37,2013-07-22 18:21:00,
2013-07-22 13:27:00,91.4,72.4,29.75,WSW,248,0.7,4.6,54,0.00,CLR,BKN,0.00,WeatherDisplay:10.37,2013-07-22 18:27:00,
2013-07-22 13:32:00,90.3,72.0,29.75,WSW,248,0.0,3.5,55,0.00,CLR,BKN,0.00,WeatherDisplay:10.37,2013-07-22 18:32:00,
2013-07-22 13:38:00,90.3,72.0,29.75,SSW,202,4.3,4.3,55,0.00,CLR,BKN,0.00,WeatherDisplay:10.37,2013-07-22 18:38:00,
2013-07-22 13:43:00,90.9,71.4,29.75,WSW,248,2.4,3.5,53,0.00,CLR,BKN,0.00,WeatherDisplay:10.37,2013-07-22 18:43:00,
2013-07-22 13:48:00,91.4,72.4,29.75,WNW,292,1.1,1.1,54,0.00,CLR,BKN,0.00,WeatherDisplay:10.37,2013-07-22 18:48:00,
2013-07-22 13:53:00,91.9,73.5,29.75,SW,225,1.1,2.3,55,0.00,CLR,BKN,0.00,WeatherDisplay:10.37,2013-07-22 18:53:00,
2013-07-22 13:58:00,91.9,72.9,29.75,NNE,22,0.2,1.1,54,0.00,CLR,BKN,0.00,WeatherDisplay:10.37,2013-07-22 18:58:00,
2013-07-22 14:03:00,92.1,73.1,29.75,WNW,292,4.0,6.9,54,0.00,CLR,BKN,0.00,WeatherDisplay:10.37,2013-07-22 19:03:00,
2013-07-22 14:08:00,91.6,72.0,29.75,WNW,292,2.6,2.6,53,0.00,CLR,BKN,0.00,WeatherDisplay:10.37,2013-07-22 19:08:00,
2013-07-22 14:13:00,91.4,72.4,29.75,WSW,248,4.3,5.8,54,0.00,CLR,BKN,0.00,WeatherDisplay:10.37,2013-07-22 19:13:00,
2013-07-22 14:18:00,91.8,73.3,29.75,WSW,248,3.3,4.6,55,0.00,CLR,BKN,0.00,WeatherDisplay:10.37,2013-07-22 19:18:00,
2013-07-22 14:24:00,92.1,73.1,29.75,WNW,292,2.6,2.6,54,0.00,CLR,BKN,0.00,WeatherDisplay:10.37,2013-07-22 19:24:00,
2013-07-22 14:29:00,91.4,72.4,29.75,NW,315,3.3,5.8,54,0.00,CLR,BKN,0.00,WeatherDisplay:10.37,2013-07-22 19:29:00,
2013-07-22 14:34:00,90.7,71.7,29.75,South,180,4.0,6.9,54,0.00,CLR,BKN,0.00,WeatherDisplay:10.37,2013-07-22 19:34:00,
2013-07-22 14:39:00,90.1,71.8,29.75,NW,315,0.0,1.1,55,0.00,CLR,BKN,0.00,WeatherDisplay:10.37,2013-07-22 19:39:00,
2013-07-22 14:44:00,90.0,72.2,29.74,WSW,248,4.0,5.8,56,0.00,CLR,BKN,0.00,WeatherDisplay:10.37,2013-07-22 19:44:00,
2013-07-22 14:49:00,89.6,72.3,29.74,WSW,248,3.6,4.6,57,0.00,CLR,BKN,0.00,WeatherDisplay:10.37,2013-07-22 19:49:00,
2013-07-22 14:55:00,89.4,72.2,29.74,West,265,2.0,0.0,57,0.00,CLR,BKN,0.00,WeatherDisplay:10.37,2013-07-22 19:55:00,
2013-07-22 15:00:00,89.2,72.0,29.74,WSW,245,5.0,0.0,57,0.00,CLR,BKN,0.00,WeatherDisplay:10.37,2013-07-22 20:00:00,
2013-07-22 15:05:00,89.5,72.3,29.74,SSW,207,2.0,0.0,57,0.00,CLR,BKN,0.00,WeatherDisplay:10.37,2013-07-22 20:05:00,
2013-07-22 15:10:00,90.1,72.8,29.74,SW,225,5.2,5.8,57,0.00,CLR,BKN,0.00,WeatherDisplay:10.37,2013-07-22 20:10:00,
2013-07-22 15:15:00,90.3,72.0,29.74,SW,225,6.7,8.1,55,0.00,CLR,BKN,0.00,WeatherDisplay:10.37,2013-07-22 20:15:00,
2013-07-22 15:16:00,90.5,72.1,29.74,SW,225,4.0,6.9,55,0.00,CLR,BKN,0.00,WeatherDisplay:10.37,2013-07-22 20:16:00,
2013-07-22 15:17:00,90.5,72.1,29.74,SW,225,4.7,6.9,55,0.00,CLR,BKN,0.00,WeatherDisplay:10.37,2013-07-22 20:17:00,
2013-07-22 15:22:00,90.7,72.3,29.74,SSW,202,1.8,3.5,55,0.00,CLR,BKN,0.00,WeatherDisplay:10.37,2013-07-22 20:22:00,
2013-07-22 15:27:00,90.5,72.1,29.74,WSW,248,1.8,4.6,55,0.00,CLR,BKN,0.00,WeatherDisplay:10.37,2013-07-22 20:27:00,
2013-07-22 15:32:00,90.7,72.8,29.74,West,270,6.9,6.9,56,0.00,CLR,BKN,0.00,WeatherDisplay:10.37,2013-07-22 20:32:00,
2013-07-22 15:37:00,90.7,72.3,29.74,NNW,338,1.8,6.9,55,0.00,CLR,BKN,0.00,WeatherDisplay:10.37,2013-07-22 20:37:00,
2013-07-22 15:42:00,90.7,72.3,29.74,West,270,0.9,2.3,55,0.00,CLR,BKN,0.00,WeatherDisplay:10.37,2013-07-22 20:42:00,
2013-07-22 15:43:00,90.5,72.1,29.74,SW,225,5.9,6.9,55,0.00,CLR,BKN,0.00,WeatherDisplay:10.37,2013-07-22 20:43:00,
2013-07-22 15:48:00,90.7,71.7,29.74,WSW,248,3.8,4.6,54,0.00,CLR,BKN,0.00,WeatherDisplay:10.37,2013-07-22 20:48:00,
2013-07-22 15:53:00,90.7,71.7,29.74,WSW,248,7.1,8.1,54,0.00,CLR,BKN,0.00,WeatherDisplay:10.37,2013-07-22 20:53:00,
2013-07-22 15:58:00,90.5,72.1,29.73,WSW,248,5.4,5.4,55,0.00,CLR,BKN,0.00,WeatherDisplay:10.37,2013-07-22 20:58:00,
2013-07-22 16:03:00,90.3,71.4,29.73,West,270,4.7,5.8,54,0.00,CLR,BKN,0.00,WeatherDisplay:10.37,2013-07-22 21:03:00,
2013-07-22 16:08:00,90.1,71.8,29.73,South,180,4.7,4.7,55,0.00,CLR,BKN,0.00,WeatherDisplay:10.37,2013-07-22 21:08:00,
2013-07-22 16:13:00,90.0,71.1,29.73,SW,225,4.7,4.7,54,0.00,CLR,BKN,0.00,WeatherDisplay:10.37,2013-07-22 21:13:00,
2013-07-22 16:18:00,89.8,70.9,29.73,South,180,4.0,4.6,54,0.00,CLR,BKN,0.00,WeatherDisplay:10.37,2013-07-22 21:18:00,
2013-07-22 16:23:00,89.2,71.0,29.72,WSW,248,8.1,8.1,55,0.00,CLR,BKN,0.00,WeatherDisplay:10.37,2013-07-22 21:23:00,
2013-07-22 16:28:00,88.9,71.2,29.73,WSW,248,3.3,5.8,56,0.00,CLR,BKN,0.00,WeatherDisplay:10.37,2013-07-22 21:28:00,
2013-07-22 16:33:00,88.7,71.0,29.72,West,270,1.8,5.8,56,0.00,CLR,BKN,0.00,WeatherDisplay:10.37,2013-07-22 21:33:00,
2013-07-22 16:38:00,88.9,71.7,29.72,SW,225,3.1,4.6,57,0.00,CLR,BKN,0.00,WeatherDisplay:10.37,2013-07-22 21:38:00,
2013-07-22 16:43:00,89.1,72.4,29.72,SW,225,5.4,5.4,58,0.00,CLR,BKN,0.00,WeatherDisplay:10.37,2013-07-22 21:43:00,
2013-07-22 16:48:00,89.1,71.8,29.73,SW,225,6.2,8.1,57,0.00,CLR,BKN,0.00,WeatherDisplay:10.37,2013-07-22 21:48:00,
2013-07-22 16:53:00,89.1,71.8,29.73,WSW,248,7.8,8.1,57,0.00,CLR,BKN,0.00,WeatherDisplay:10.37,2013-07-22 21:53:00,
2013-07-22 16:58:00,88.9,71.7,29.73,West,270,2.6,4.6,57,0.00,CLR,BKN,0.00,WeatherDisplay:10.37,2013-07-22 21:58:00,
2013-07-22 17:03:00,88.7,72.0,29.72,WSW,248,5.2,5.8,58,0.00,CLR,BKN,0.00,WeatherDisplay:10.37,2013-07-22 22:03:00,
2013-07-22 17:08:00,88.9,72.2,29.72,WSW,248,4.0,5.8,58,0.00,CLR,BKN,0.00,WeatherDisplay:10.37,2013-07-22 22:08:00,
2013-07-22 17:13:00,88.9,72.2,29.72,WSW,248,4.0,5.8,58,0.00,CLR,BKN,0.00,WeatherDisplay:10.37,2013-07-22 22:13:00,
2013-07-22 17:18:00,88.9,71.7,29.72,WSW,248,4.0,8.1,57,0.00,CLR,BKN,0.00,WeatherDisplay:10.37,2013-07-22 22:18:00,
2013-07-22 17:23:00,88.5,71.9,29.72,WSW,248,6.2,6.2,58,0.00,CLR,BKN,0.00,WeatherDisplay:10.37,2013-07-22 22:23:00,
2013-07-22 17:28:00,88.3,71.7,29.72,WSW,248,4.7,8.1,58,0.00,CLR,BKN,0.00,WeatherDisplay:10.37,2013-07-22 22:28:00,
2013-07-22 17:33:00,88.3,71.7,29.72,WSW,248,5.2,6.9,58,0.00,CLR,BKN,0.00,WeatherDisplay:10.37,2013-07-22 22:33:00,
2013-07-22 17:38:00,88.2,71.5,29.71,WSW,248,6.0,6.0,58,0.00,CLR,BKN,0.00,WeatherDisplay:10.37,2013-07-22 22:38:00,
2013-07-22 17:43:00,88.2,71.5,29.71,SSW,202,6.4,6.9,58,0.00,CLR,BKN,0.00,WeatherDisplay:10.37,2013-07-22 22:43:00,
2013-07-22 17:48:00,88.2,72.0,29.71,SSW,202,7.4,7.4,59,0.00,CLR,BKN,0.00,WeatherDisplay:10.37,2013-07-22 22:48:00,
2013-07-22 17:53:00,88.2,72.0,29.71,SW,225,6.7,6.9,59,0.00,CLR,BKN,0.00,WeatherDisplay:10.37,2013-07-22 22:53:00,
2013-07-22 17:58:00,87.8,71.7,29.71,WSW,248,7.8,8.1,59,0.00,CLR,BKN,0.00,WeatherDisplay:10.37,2013-07-22 22:58:00,
2013-07-22 18:03:00,87.6,71.5,29.71,SW,225,7.4,7.4,59,0.00,CLR,BKN,0.00,WeatherDisplay:10.37,2013-07-22 23:03:00,
2013-07-22 18:08:00,87.4,71.3,29.71,WSW,248,8.1,8.1,59,0.00,CLR,BKN,0.00,WeatherDisplay:10.37,2013-07-22 23:08:00,
2013-07-22 18:13:00,87.3,71.7,29.71,WSW,248,5.4,6.9,60,0.00,CLR,BKN,0.00,WeatherDisplay:10.37,2013-07-22 23:13:00,
2013-07-22 18:18:00,86.9,70.8,29.71,WSW,248,3.3,6.9,59,0.00,CLR,BKN,0.00,WeatherDisplay:10.37,2013-07-22 23:18:00,
2013-07-22 18:23:00,86.7,71.2,29.71,WSW,248,4.5,5.8,60,0.00,CLR,BKN,0.00,WeatherDisplay:10.37,2013-07-22 23:23:00,
2013-07-22 18:28:00,86.5,71.5,29.71,WSW,248,2.0,4.6,61,0.00,CLR,BKN,0.00,WeatherDisplay:10.37,2013-07-22 23:28:00,
2013-07-22 18:33:00,86.4,71.3,29.70,SW,225,4.7,5.8,61,0.00,CLR,BKN,0.00,WeatherDisplay:10.37,2013-07-22 23:33:00,
2013-07-22 18:38:00,86.2,71.2,29.70,SW,225,5.2,8.1,61,0.00,CLR,BKN,0.00,WeatherDisplay:10.37,2013-07-22 23:38:00,
2013-07-22 18:43:00,86.0,71.5,29.70,WSW,248,5.4,6.9,62,0.00,CLR,BKN,0.00,WeatherDisplay:10.37,2013-07-22 23:43:00,
2013-07-22 18:48:00,85.8,71.3,29.70,SW,225,5.9,6.9,62,0.00,CLR,BKN,0.00,WeatherDisplay:10.37,2013-07-22 23:48:00,
2013-07-22 18:53:00,85.8,71.3,29.70,SW,225,4.0,5.8,62,0.00,CLR,BKN,0.00,WeatherDisplay:10.37,2013-07-22 23:53:00,
2013-07-22 18:58:00,85.6,71.6,29.70,WSW,248,4.3,4.3,63,0.00,CLR,BKN,0.00,WeatherDisplay:10.37,2013-07-22 23:58:00,
2013-07-22 19:03:00,85.3,71.3,29.70,WSW,248,2.4,4.6,63,0.00,CLR,BKN,0.00,WeatherDisplay:10.37,2013-07-23 00:03:00,
2013-07-22 19:08:00,85.1,71.5,29.71,WSW,248,3.1,4.6,64,0.00,CLR,BKN,0.00,WeatherDisplay:10.37,2013-07-23 00:08:00,
2013-07-22 19:13:00,84.6,71.0,29.71,WSW,248,3.1,5.8,64,0.00,CLR,BKN,0.00,WeatherDisplay:10.37,2013-07-23 00:13:00,
2013-07-22 19:18:00,84.4,71.3,29.72,WSW,248,3.6,4.6,65,0.00,CLR,BKN,0.00,WeatherDisplay:10.37,2013-07-23 00:18:00,
2013-07-22 19:23:00,83.8,70.8,29.71,WSW,248,2.4,2.4,65,0.00,CLR,BKN,0.00,WeatherDisplay:10.37,2013-07-23 00:23:00,
2013-07-22 19:28:00,83.7,71.1,29.71,WSW,248,3.1,3.1,66,0.00,CLR,BKN,0.00,WeatherDisplay:10.37,2013-07-23 00:28:00,
2013-07-22 19:33:00,83.1,70.6,29.71,WSW,248,2.6,2.6,66,0.00,CLR,BKN,0.00,WeatherDisplay:10.37,2013-07-23 00:33:00,
2013-07-22 19:38:00,82.8,70.7,29.71,WSW,248,3.3,3.5,67,0.00,CLR,BKN,0.00,WeatherDisplay:10.37,2013-07-23 00:38:00,
2013-07-22 19:43:00,82.4,70.8,29.71,SW,225,2.4,2.4,68,0.00,CLR,BKN,0.00,WeatherDisplay:10.37,2013-07-23 00:43:00,
2013-07-22 19:48:00,82.0,70.4,29.71,WSW,248,2.2,2.3,68,0.00,CLR,BKN,0.00,WeatherDisplay:10.37,2013-07-23 00:48:00,
2013-07-22 19:53:00,81.9,70.3,29.71,WSW,248,2.0,2.3,68,0.00,CLR,BKN,0.00,WeatherDisplay:10.37,2013-07-23 00:53:00,
2013-07-22 19:58:00,81.5,69.9,29.71,SSW,202,1.1,1.1,68,0.00,CLR,BKN,0.00,WeatherDisplay:10.37,2013-07-23 00:58:00,
2013-07-22 20:03:00,81.1,70.0,29.71,SSW,202,1.8,2.3,69,0.00,CLR,BKN,0.00,WeatherDisplay:10.37,2013-07-23 01:03:00,
2013-07-22 20:08:00,80.8,70.1,29.71,SW,225,1.6,2.3,70,0.00,CLR,BKN,0.00,WeatherDisplay:10.37,2013-07-23 01:08:00,
2013-07-22 20:13:00,80.4,70.2,29.71,SSW,202,2.4,2.4,71,0.00,CLR,BKN,0.00,WeatherDisplay:10.37,2013-07-23 01:13:00,
2013-07-22 20:18:00,80.2,70.0,29.71,SSW,202,2.2,2.3,71,0.00,CLR,BKN,0.00,WeatherDisplay:10.37,2013-07-23 01:18:00,
2013-07-22 20:23:00,79.9,70.0,29.71,SW,225,2.4,2.4,72,0.00,CLR,BKN,0.00,WeatherDisplay:10.37,2013-07-23 01:23:00,
2013-07-22 20:28:00,79.7,69.9,29.71,SW,225,2.0,2.3,72,0.00,CLR,BKN,0.00,WeatherDisplay:10.37,2013-07-23 01:28:00,
2013-07-22 20:33:00,79.5,69.7,29.71,SW,225,1.8,2.3,72,0.00,CLR,BKN,0.00,WeatherDisplay:10.37,2013-07-23 01:33:00,
2013-07-22 20:38:00,79.3,69.9,29.71,SW,225,1.8,2.3,73,0.00,CLR,BKN,0.00,WeatherDisplay:10.37,2013-07-23 01:38:00,
2013-07-22 20:43:00,79.2,69.8,29.71,South,180,0.5,1.1,73,0.00,CLR,BKN,0.00,WeatherDisplay:10.37,2013-07-23 01:43:00,
2013-07-22 20:48:00,78.8,69.4,29.70,SSW,202,1.8,2.3,73,0.00,CLR,BKN,0.00,WeatherDisplay:10.37,2013-07-23 01:48:00,
2013-07-22 20:53:00,78.4,69.5,29.71,SSW,202,2.2,2.3,74,0.00,CLR,BKN,0.00,WeatherDisplay:10.37,2013-07-23 01:53:00,
2013-07-22 20:58:00,78.3,69.3,29.71,SW,225,3.3,3.5,74,0.00,CLR,BKN,0.00,WeatherDisplay:10.37,2013-07-23 01:58:00,
2013-07-22 21:03:00,78.1,69.5,29.71,SSW,202,2.2,2.3,75,0.00,CLR,BKN,0.00,WeatherDisplay:10.37,2013-07-23 02:03:00,
2013-07-22 21:08:00,77.9,69.3,29.71,SSW,202,3.1,3.5,75,0.00,CLR,BKN,0.00,WeatherDisplay:10.37,2013-07-23 02:08:00,
2013-07-22 21:13:00,77.7,69.2,29.70,South,180,3.3,3.5,75,0.00,CLR,BKN,0.00,WeatherDisplay:10.37,2013-07-23 02:13:00,
2013-07-22 21:18:00,77.5,69.4,29.71,SW,225,3.1,3.5,76,0.00,CLR,BKN,0.00,WeatherDisplay:10.37,2013-07-23 02:18:00,
2013-07-22 21:23:00,77.4,69.2,29.71,SSW,202,2.2,3.5,76,0.00,CLR,BKN,0.00,WeatherDisplay:10.37,2013-07-23 02:23:00,
2013-07-22 21:28:00,77.0,68.9,29.71,SW,225,2.4,3.5,76,0.00,CLR,BKN,0.00,WeatherDisplay:10.37,2013-07-23 02:28:00,
2013-07-22 21:33:00,77.0,69.2,29.71,SW,225,1.6,2.3,77,0.00,CLR,BKN,0.00,WeatherDisplay:10.37,2013-07-23 02:33:00,
2013-07-22 21:38:00,77.0,69.2,29.71,SW,225,1.4,2.3,77,0.00,CLR,BKN,0.00,WeatherDisplay:10.37,2013-07-23 02:38:00,
2013-07-22 21:43:00,77.0,69.2,29.71,WSW,248,1.1,1.1,77,0.00,CLR,BKN,0.00,WeatherDisplay:10.37,2013-07-23 02:43:00,
2013-07-22 21:48:00,76.8,69.1,29.72,WSW,248,1.1,2.3,77,0.00,CLR,BKN,0.00,WeatherDisplay:10.37,2013-07-23 02:48:00,
2013-07-22 21:53:00,76.6,68.9,29.71,South,180,2.2,2.3,77,0.00,CLR,BKN,0.00,WeatherDisplay:10.37,2013-07-23 02:53:00,
2013-07-22 21:58:00,76.1,68.4,29.71,SSE,158,3.3,3.5,77,0.00,CLR,BKN,0.00,WeatherDisplay:10.37,2013-07-23 02:58:00,
2013-07-22 22:03:00,75.6,68.6,29.71,South,180,2.9,2.9,79,0.00,CLR,BKN,0.00,WeatherDisplay:10.37,2013-07-23 03:03:00,
2013-07-22 22:08:00,75.4,68.8,29.71,SSW,202,2.4,2.4,80,0.00,CLR,BKN,0.00,WeatherDisplay:10.37,2013-07-23 03:08:00,
2013-07-22 22:13:00,75.6,69.0,29.71,SSW,202,1.1,2.3,80,0.00,CLR,BKN,0.00,WeatherDisplay:10.37,2013-07-23 03:13:00,
2013-07-22 22:18:00,75.7,69.1,29.71,SSW,202,1.1,2.3,80,0.00,CLR,BKN,0.00,WeatherDisplay:10.37,2013-07-23 03:18:00,
2013-07-22 22:23:00,75.7,69.1,29.72,SW,225,3.3,3.5,80,0.00,CLR,BKN,0.00,WeatherDisplay:10.37,2013-07-23 03:23:00,
2013-07-22 22:28:00,75.6,69.0,29.72,SW,225,2.9,3.5,80,0.00,CLR,BKN,0.00,WeatherDisplay:10.37,2013-07-23 03:28:00,
2013-07-22 22:33:00,75.6,69.3,29.72,SW,225,2.6,3.5,81,0.00,CLR,BKN,0.00,WeatherDisplay:10.37,2013-07-23 03:33:00,
2013-07-22 22:38:00,75.6,69.0,29.73,WSW,248,2.9,3.5,80,0.00,CLR,BKN,0.00,WeatherDisplay:10.37,2013-07-23 03:38:00,
2013-07-22 22:43:00,75.7,69.5,29.73,SW,225,2.4,2.4,81,0.00,CLR,BKN,0.00,WeatherDisplay:10.37,2013-07-23 03:43:00,
2013-07-22 22:48:00,75.7,69.5,29.74,SSW,202,2.9,3.5,81,0.00,CLR,BKN,0.00,WeatherDisplay:10.37,2013-07-23 03:48:00,
2013-07-22 22:53:00,75.9,69.7,29.74,SW,225,3.3,3.5,81,0.00,CLR,BKN,0.00,WeatherDisplay:10.37,2013-07-23 03:53:00,
2013-07-22 22:58:00,75.9,69.7,29.74,SW,225,3.3,3.5,81,0.00,CLR,BKN,0.00,WeatherDisplay:10.37,2013-07-23 03:58:00,
2013-07-22 23:01:00,75.9,69.7,29.74,SW,225,2.9,3.5,81,0.00,CLR,BKN,0.00,WeatherDisplay:10.37,2013-07-23 04:01:00,
2013-07-22 23:06:00,76.1,70.2,29.74,SW,225,3.3,4.6,82,0.00,CLR,BKN,0.00,WeatherDisplay:10.37,2013-07-23 04:06:00,
2013-07-22 23:11:00,76.5,70.2,29.76,WSW,248,8.7,8.7,81,0.00,CLR,BKN,0.00,WeatherDisplay:10.37,2013-07-23 04:11:00,
2013-07-22 23:16:00,77.2,70.2,29.76,NW,315,21.5,24.2,79,0.00,CLR,BKN,0.00,WeatherDisplay:10.37,2013-07-23 04:16:00,
2013-07-22 23:21:00,77.7,69.5,29.78,NW,315,18.5,19.6,76,0.00,CLR,BKN,0.00,WeatherDisplay:10.37,2013-07-23 04:21:00,
2013-07-22 23:26:00,77.9,68.5,29.79,NW,315,21.5,21.9,73,0.00,CLR,BKN,0.00,WeatherDisplay:10.37,2013-07-23 04:26:00,
2013-07-22 23:31:00,76.6,68.1,29.80,NNW,338,12.8,12.8,75,0.01,RA,BKN,0.01,WeatherDisplay:10.37,2013-07-23 04:31:00,
2013-07-22 23:36:00,75.2,67.1,29.80,NNW,338,12.8,12.8,76,0.01,RA,BKN,0.01,WeatherDisplay:10.37,2013-07-23 04:36:00,
2013-07-22 23:41:00,74.1,66.4,29.80,NNW,338,8.1,8.1,77,0.02,RA,BKN,0.02,WeatherDisplay:10.37,2013-07-23 04:41:00,
2013-07-22 23:46:00,73.4,66.5,29.80,North,0,7.6,8.1,79,0.02,RA,BKN,0.02,WeatherDisplay:10.37,2013-07-23 04:46:00,
2013-07-22 23:51:00,73.0,66.5,29.79,NNW,338,5.4,5.8,80,0.02,CLR,BKN,0.02,WeatherDisplay:10.37,2013-07-23 04:51:00,
2013-07-22 23:56:00,72.7,66.5,29.79,WNW,292,9.2,9.2,81,0.02,CLR,BKN,0.02,WeatherDisplay:10.37,2013-07-23 04:56:00,